createdAt,value
2018-07-09T00:00:13.984Z,99.90
2018-07-09T00:03:19.680Z,99.90
2018-07-09T00:06:24.429Z,99.90
2018-07-09T00:09:35.897Z,99.90
2018-07-09T00:12:41.328Z,99.90
2018-07-09T00:15:46.659Z,99.90
2018-07-09T00:18:51.375Z,99.90
2018-07-09T00:25:08.071Z,99.90
2018-07-09T00:28:14.214Z,99.90
2018-07-09T00:31:20.139Z,99.90
2018-07-09T00:34:28.333Z,99.90
2018-07-09T00:37:33.704Z,99.90
2018-07-09T00:40:48.921Z,99.90
2018-07-09T00:43:58.242Z,99.90
2018-07-09T00:47:07.476Z,99.90
2018-07-09T00:50:13.405Z,99.90
2018-07-09T00:53:20.672Z,99.90
2018-07-09T00:56:25.751Z,99.90
2018-07-09T00:59:30.343Z,99.90
2018-07-09T01:02:36.109Z,99.90
2018-07-09T01:05:46.830Z,99.90
2018-07-09T01:08:51.905Z,99.90
2018-07-09T01:12:10.258Z,99.90
2018-07-09T01:15:16.888Z,99.90
2018-07-09T01:18:31.429Z,99.90
2018-07-09T01:21:39.705Z,99.90
2018-07-09T01:24:44.598Z,99.90
2018-07-09T01:27:49.527Z,99.90
2018-07-09T01:30:55.946Z,99.90
2018-07-09T01:34:00.335Z,99.90
2018-07-09T01:40:16.780Z,99.90
2018-07-09T01:43:28.783Z,99.90
2018-07-09T01:46:33.359Z,99.90
2018-07-09T01:52:43.011Z,99.90
2018-07-09T01:55:49.734Z,99.90
2018-07-09T01:58:54.304Z,99.90
2018-07-09T02:02:01.065Z,99.90
2018-07-09T02:05:05.524Z,99.90
2018-07-09T02:08:10.785Z,99.90
2018-07-09T02:11:15.841Z,99.90
2018-07-09T02:14:20.371Z,99.90
2018-07-09T02:17:26.138Z,99.90
2018-07-09T02:20:31.138Z,99.90
2018-07-09T02:23:35.833Z,99.90
2018-07-09T02:26:41.340Z,99.90
2018-07-09T02:29:45.894Z,99.90
2018-07-09T02:32:50.518Z,99.90
2018-07-09T02:35:56.116Z,99.90
2018-07-09T02:39:01.775Z,99.90
2018-07-09T02:42:06.729Z,99.90
2018-07-09T02:45:12.668Z,99.90
2018-07-09T02:48:18.377Z,99.90
2018-07-09T02:51:23.474Z,99.90
2018-07-09T02:54:28.765Z,99.90
2018-07-09T02:57:34.110Z,99.90
2018-07-09T03:00:38.882Z,99.90
2018-07-09T03:03:44.378Z,99.90
2018-07-09T03:06:48.939Z,99.90
2018-07-09T03:09:53.482Z,99.90
2018-07-09T03:12:59.320Z,99.90
2018-07-09T03:16:04.811Z,99.90
2018-07-09T03:19:12.689Z,99.90
2018-07-09T03:22:17.519Z,99.90
2018-07-09T03:25:22.831Z,99.90
2018-07-09T03:31:32.219Z,99.90
2018-07-09T03:34:38.697Z,99.90
2018-07-09T03:37:43.072Z,99.90
2018-07-09T03:40:47.357Z,99.90
2018-07-09T03:43:52.054Z,99.90
2018-07-09T03:46:59.396Z,99.90
2018-07-09T03:50:10.948Z,99.90
2018-07-09T03:53:15.306Z,99.90
2018-07-09T03:56:20.362Z,99.90
2018-07-09T03:59:26.476Z,99.90
2018-07-09T04:02:31.631Z,99.90
2018-07-09T04:05:36.287Z,99.90
2018-07-09T04:11:44.841Z,99.90
2018-07-09T04:14:49.123Z,99.90
2018-07-09T04:17:53.625Z,99.90
2018-07-09T04:20:58.168Z,99.90
2018-07-09T04:24:02.585Z,99.90
2018-07-09T04:27:08.237Z,99.90
2018-07-09T04:30:12.675Z,99.90
2018-07-09T04:33:17.257Z,99.90
2018-07-09T04:36:22.061Z,99.90
2018-07-09T04:39:26.516Z,99.90
2018-07-09T04:42:31.296Z,99.90
2018-07-09T04:45:36.254Z,99.90
2018-07-09T04:48:40.590Z,99.90
2018-07-09T04:51:45.096Z,99.90
2018-07-09T04:54:49.404Z,99.60
2018-07-09T04:57:53.823Z,99.20
2018-07-09T05:00:58.392Z,99.30
2018-07-09T05:04:02.853Z,99.30
2018-07-09T05:07:07.206Z,99.10
2018-07-09T05:10:11.645Z,99.20
2018-07-09T05:13:16.065Z,99.10
2018-07-09T05:16:20.703Z,99.10
2018-07-09T05:19:25.110Z,99.10
2018-07-09T05:22:29.625Z,99.10
2018-07-09T05:25:34.505Z,99.20
2018-07-09T05:28:39.141Z,98.90
2018-07-09T05:31:43.616Z,98.70
2018-07-09T05:34:48.211Z,99.10
2018-07-09T05:37:53.114Z,98.70
2018-07-09T05:40:58.051Z,97.80
2018-07-09T05:44:02.822Z,98.00
2018-07-09T05:47:07.292Z,97.70
2018-07-09T05:50:11.674Z,97.40
2018-07-09T05:53:16.520Z,97.30
2018-07-09T05:56:23.379Z,96.80
2018-07-09T05:59:29.925Z,96.40
2018-07-09T06:02:34.685Z,96.40
2018-07-09T06:05:39.038Z,96.00
2018-07-09T06:08:43.375Z,95.70
2018-07-09T06:11:48.030Z,95.50
2018-07-09T06:14:53.724Z,95.20
2018-07-09T06:17:58.159Z,94.80
2018-07-09T06:21:02.560Z,94.10
2018-07-09T06:24:07.200Z,93.60
2018-07-09T06:27:11.931Z,93.60
2018-07-09T06:30:16.610Z,93.90
2018-07-09T06:33:20.951Z,93.90
2018-07-09T06:36:25.386Z,94.50
2018-07-09T06:39:29.894Z,94.80
2018-07-09T06:42:34.312Z,94.00
2018-07-09T06:45:38.811Z,94.00
2018-07-09T06:48:43.101Z,94.20
2018-07-09T06:51:47.424Z,94.60
2018-07-09T06:54:52.837Z,94.80
2018-07-09T06:57:57.202Z,94.90
2018-07-09T07:01:01.649Z,95.00
2018-07-09T07:04:06.336Z,95.40
2018-07-09T07:07:10.815Z,95.00
2018-07-09T07:10:15.112Z,94.80
2018-07-09T07:13:19.392Z,94.70
2018-07-09T07:16:23.827Z,94.50
2018-07-09T07:19:28.179Z,94.80
2018-07-09T07:22:32.541Z,94.90
2018-07-09T07:25:37.240Z,94.90
2018-07-09T07:28:41.717Z,94.50
2018-07-09T07:31:46.171Z,94.50
2018-07-09T07:34:50.841Z,94.90
2018-07-09T07:37:55.176Z,95.20
2018-07-09T07:40:59.761Z,95.30
2018-07-09T07:44:04.224Z,95.60
2018-07-09T07:47:09.178Z,95.50
2018-07-09T07:50:13.919Z,95.70
2018-07-09T07:53:18.283Z,95.70
2018-07-09T07:56:22.601Z,95.70
2018-07-09T07:59:27.152Z,96.20
2018-07-09T08:02:31.467Z,96.10
2018-07-09T08:05:35.812Z,96.00
2018-07-09T08:08:40.278Z,96.10
2018-07-09T08:11:48.552Z,96.10
2018-07-09T08:14:49.679Z,96.20
2018-07-09T08:17:54.033Z,96.20
2018-07-09T08:20:59.200Z,96.50
2018-07-09T08:27:08.054Z,96.80
2018-07-09T08:30:12.735Z,96.60
2018-07-09T08:33:17.079Z,96.50
2018-07-09T08:36:21.438Z,96.50
2018-07-09T08:42:30.076Z,96.00
2018-07-09T08:45:35.356Z,96.50
2018-07-09T08:48:39.857Z,96.40
2018-07-09T08:51:45.500Z,96.40
2018-07-09T08:54:49.820Z,96.10
2018-07-09T08:57:55.399Z,95.70
2018-07-09T09:01:00.369Z,95.60
2018-07-09T09:04:05.099Z,95.10
2018-07-09T09:07:09.666Z,94.60
2018-07-09T09:10:14.123Z,95.20
2018-07-09T09:13:20.341Z,95.30
2018-07-09T09:16:24.669Z,94.90
2018-07-09T09:19:29.040Z,94.60
2018-07-09T09:22:33.526Z,94.80
2018-07-09T09:25:38.221Z,94.50
2018-07-09T09:28:42.805Z,93.60
2018-07-09T09:31:47.465Z,92.40
2018-07-09T09:34:51.837Z,92.00
2018-07-09T09:37:56.503Z,91.30
2018-07-09T09:41:00.865Z,90.40
2018-07-09T09:44:05.412Z,91.00
2018-07-09T09:47:09.818Z,89.80
2018-07-09T09:50:14.128Z,90.00
2018-07-09T09:53:18.452Z,90.20
2018-07-09T09:56:24.454Z,89.50
2018-07-09T09:59:28.854Z,88.90
2018-07-09T10:02:33.910Z,89.00
2018-07-09T10:05:38.633Z,87.60
2018-07-09T10:08:43.275Z,88.00
2018-07-09T10:11:47.940Z,87.70
2018-07-09T10:14:52.418Z,87.80
2018-07-09T10:17:57.175Z,88.30
2018-07-09T10:21:01.528Z,89.00
2018-07-09T10:24:06.082Z,89.90
2018-07-09T10:27:11.579Z,88.90
2018-07-09T10:30:16.645Z,88.30
2018-07-09T10:33:21.073Z,87.90
2018-07-09T10:36:26.209Z,89.30
2018-07-09T10:39:31.235Z,89.30
2018-07-09T10:42:36.363Z,90.20
2018-07-09T10:45:42.849Z,90.30
2018-07-09T10:48:47.343Z,90.00
2018-07-09T10:51:52.366Z,89.50
2018-07-09T10:54:59.319Z,90.30
2018-07-09T10:58:04.186Z,90.00
2018-07-09T11:01:13.203Z,90.50
2018-07-09T11:04:18.089Z,90.20
2018-07-09T11:07:22.719Z,90.20
2018-07-09T11:10:27.486Z,90.20
2018-07-09T11:13:32.034Z,90.40
2018-07-09T11:16:36.990Z,90.30
2018-07-09T11:19:41.456Z,90.50
2018-07-09T11:22:47.437Z,90.70
2018-07-09T11:25:51.927Z,90.50
2018-07-09T11:28:56.861Z,90.40
2018-07-09T11:32:01.314Z,90.40
2018-07-09T11:35:06.057Z,90.10
2018-07-09T11:38:10.385Z,90.30
2018-07-09T11:41:15.011Z,90.20
2018-07-09T11:44:20.443Z,90.50
2018-07-09T11:47:25.102Z,90.50
2018-07-09T11:50:29.910Z,90.40
2018-07-09T11:53:34.290Z,90.20
2018-07-09T11:56:38.756Z,88.50
2018-07-09T11:59:43.721Z,87.90
2018-07-09T12:02:48.213Z,87.90
2018-07-09T12:05:52.731Z,87.30
2018-07-09T12:08:57.769Z,86.90
2018-07-09T12:12:03.052Z,88.20
2018-07-09T12:15:07.402Z,89.60
2018-07-09T12:18:11.779Z,90.00
2018-07-09T12:21:16.340Z,90.10
2018-07-09T12:24:22.555Z,89.90
2018-07-09T12:27:27.120Z,90.00
2018-07-09T12:30:31.465Z,89.50
2018-07-09T12:33:35.911Z,88.90
2018-07-09T12:36:42.333Z,88.80
2018-07-09T12:39:47.338Z,89.60
2018-07-09T12:42:52.989Z,90.00
2018-07-09T12:45:58.201Z,89.40
2018-07-09T12:49:03.333Z,87.20
2018-07-09T12:52:07.881Z,85.90
2018-07-09T12:55:13.210Z,85.90
2018-07-09T12:58:18.090Z,86.20
2018-07-09T13:01:23.173Z,85.70
2018-07-09T13:04:27.859Z,83.70
2018-07-09T13:07:33.186Z,85.30
2018-07-09T13:10:38.699Z,84.30
2018-07-09T13:13:43.586Z,85.40
2018-07-09T13:16:49.056Z,83.20
2018-07-09T13:19:53.413Z,82.50
2018-07-09T13:22:58.311Z,84.20
2018-07-09T13:26:03.349Z,84.40
2018-07-09T13:29:08.294Z,84.40
2018-07-09T13:32:13.034Z,84.60
2018-07-09T13:35:17.602Z,84.80
2018-07-09T13:38:22.833Z,85.70
2018-07-09T13:41:29.868Z,85.70
2018-07-09T13:44:35.008Z,85.60
2018-07-09T13:50:44.170Z,87.70
2018-07-09T13:53:48.955Z,88.50
2018-07-09T13:56:54.240Z,89.00
2018-07-09T13:59:58.904Z,89.50
2018-07-09T14:03:03.404Z,89.60
2018-07-09T14:06:08.239Z,90.00
2018-07-09T14:09:12.553Z,89.10
2018-07-09T14:12:17.685Z,90.20
2018-07-09T14:15:22.414Z,90.60
2018-07-09T14:18:27.126Z,89.40
2018-07-09T14:21:32.056Z,89.90
2018-07-09T14:24:36.835Z,90.40
2018-07-09T14:27:41.705Z,88.90
2018-07-09T14:30:46.868Z,89.80
2018-07-09T14:36:55.995Z,88.90
2018-07-09T14:40:00.621Z,89.00
2018-07-09T14:43:07.877Z,88.70
2018-07-09T14:46:12.240Z,88.80
2018-07-09T14:49:17.261Z,89.00
2018-07-09T14:52:22.209Z,90.00
2018-07-09T14:55:27.293Z,90.20
2018-07-09T14:58:38.632Z,88.70
2018-07-09T15:01:43.203Z,89.20
2018-07-09T15:04:48.141Z,89.20
2018-07-09T15:07:52.725Z,87.30
2018-07-09T15:10:57.648Z,86.60
2018-07-09T15:14:02.639Z,85.70
2018-07-09T15:17:07.808Z,83.80
2018-07-09T15:20:13.457Z,83.50
2018-07-09T15:23:18.397Z,83.80
2018-07-09T15:26:22.854Z,85.10
2018-07-09T15:29:27.325Z,86.70
2018-07-09T15:32:32.545Z,87.00
2018-07-09T15:35:36.977Z,88.50
2018-07-09T15:38:41.426Z,88.80
2018-07-09T15:41:47.658Z,89.30
2018-07-09T15:44:52.287Z,89.90
2018-07-09T15:47:57.228Z,90.20
2018-07-09T15:51:01.768Z,89.10
2018-07-09T15:54:06.108Z,86.50
2018-07-09T15:57:10.544Z,83.50
2018-07-09T16:00:15.584Z,82.80
2018-07-09T16:03:20.328Z,82.40
2018-07-09T16:06:25.122Z,81.10
2018-07-09T16:09:30.118Z,80.60
2018-07-09T16:12:34.765Z,80.70
2018-07-09T16:15:39.773Z,83.50
2018-07-09T16:18:45.151Z,85.90
2018-07-09T16:21:51.072Z,88.30
2018-07-09T16:24:56.013Z,87.50
2018-07-09T16:28:00.933Z,87.90
2018-07-09T16:31:06.017Z,88.80
2018-07-09T16:34:10.387Z,89.30
2018-07-09T16:37:15.125Z,89.50
2018-07-09T16:40:19.426Z,90.40
2018-07-09T16:43:25.610Z,90.10
2018-07-09T16:46:30.509Z,90.00
2018-07-09T16:49:35.755Z,90.10
2018-07-09T16:52:42.142Z,90.00
2018-07-09T16:55:47.381Z,90.40
2018-07-09T16:58:51.929Z,90.40
2018-07-09T17:01:56.216Z,90.80
2018-07-09T17:05:00.934Z,90.80
2018-07-09T17:08:06.373Z,91.00
2018-07-09T17:11:11.052Z,91.40
2018-07-09T17:14:15.930Z,91.30
2018-07-09T17:17:20.468Z,91.20
2018-07-09T17:20:25.001Z,91.40
2018-07-09T17:23:29.642Z,91.10
2018-07-09T17:26:34.528Z,91.40
2018-07-09T17:29:42.929Z,91.90
2018-07-09T17:32:47.902Z,92.20
2018-07-09T17:35:52.433Z,92.30
2018-07-09T17:38:56.870Z,92.20
2018-07-09T17:42:01.337Z,92.10
2018-07-09T17:45:06.587Z,92.10
2018-07-09T17:48:11.034Z,91.30
2018-07-09T17:51:16.056Z,91.30
2018-07-09T17:54:20.726Z,91.60
2018-07-09T17:57:25.050Z,92.00
2018-07-09T18:00:29.796Z,92.10
2018-07-09T18:03:34.111Z,92.10
2018-07-09T18:06:38.991Z,92.00
2018-07-09T18:09:44.504Z,91.20
2018-07-09T18:12:49.166Z,91.20
2018-07-09T18:15:54.262Z,91.00
2018-07-09T18:18:58.621Z,91.70
2018-07-09T18:22:03.428Z,91.70
2018-07-09T18:25:08.982Z,91.70
2018-07-09T18:28:13.362Z,91.80
2018-07-09T18:31:17.699Z,92.20
2018-07-09T18:34:22.104Z,92.30
2018-07-09T18:37:26.501Z,92.50
2018-07-09T18:40:31.127Z,92.60
2018-07-09T18:43:35.490Z,92.80
2018-07-09T18:46:39.921Z,92.80
2018-07-09T18:49:44.704Z,92.60
2018-07-09T18:52:49.428Z,92.70
2018-07-09T18:58:58.340Z,92.30
2018-07-09T19:02:03.239Z,92.60
2018-07-09T19:05:07.723Z,92.90
2018-07-09T19:08:12.370Z,93.00
2018-07-09T19:11:16.691Z,93.20
2018-07-09T19:14:30.014Z,93.10
2018-07-09T19:19:16.701Z,92.90
2018-07-09T19:22:28.256Z,92.80
2018-07-09T19:25:31.158Z,93.20
2018-07-09T19:28:34.180Z,93.50
2018-07-09T19:31:37.071Z,94.00
2018-07-09T19:34:39.918Z,94.10
2018-07-09T19:37:42.958Z,94.20
2018-07-09T19:40:45.477Z,94.40
2018-07-09T19:43:48.298Z,94.60
2018-07-09T19:46:51.410Z,94.80
2018-07-09T19:49:54.278Z,95.10
2018-07-09T19:52:57.053Z,95.30
2018-07-09T19:55:59.966Z,95.40
2018-07-09T19:59:03.923Z,95.70
2018-07-09T20:02:06.841Z,95.90
2018-07-09T20:05:09.731Z,95.90
2018-07-09T20:08:12.605Z,96.10
2018-07-09T20:11:21.038Z,96.30
2018-07-09T20:14:29.351Z,96.40
2018-07-09T20:17:35.995Z,96.50
2018-07-09T20:20:38.919Z,96.70
2018-07-09T20:23:42.143Z,96.80
2018-07-09T20:26:44.962Z,96.70
2018-07-09T20:29:47.894Z,96.60
2018-07-09T20:32:52.428Z,96.80
2018-07-09T20:35:55.309Z,97.00
2018-07-09T20:38:58.174Z,97.30
2018-07-09T20:42:05.758Z,97.60
2018-07-09T20:45:08.579Z,97.90
2018-07-09T20:48:11.630Z,98.20
2018-07-09T20:51:14.846Z,98.40
2018-07-09T20:54:18.047Z,98.70
2018-07-09T20:57:20.926Z,99.00
2018-07-09T21:00:24.150Z,98.80
2018-07-09T21:03:26.981Z,98.90
2018-07-09T21:09:35.221Z,99.20
2018-07-09T21:12:43.567Z,99.30
2018-07-09T21:15:46.862Z,99.30
2018-07-09T21:18:49.900Z,99.50
2018-07-09T21:21:53.823Z,99.50
2018-07-09T21:24:56.642Z,99.90
2018-07-09T21:27:59.758Z,99.70
2018-07-09T21:31:04.015Z,99.50
2018-07-09T21:34:06.779Z,99.50
2018-07-09T21:37:10.896Z,99.50
2018-07-09T21:40:13.714Z,99.40
2018-07-09T21:43:16.674Z,99.50
2018-07-09T21:46:20.904Z,99.50
2018-07-09T21:52:34.726Z,99.80
2018-07-09T21:55:42.426Z,99.90
2018-07-09T21:58:49.568Z,99.90
2018-07-09T22:01:53.525Z,99.90
2018-07-09T22:04:56.677Z,99.90
2018-07-09T22:08:00.181Z,99.90
2018-07-09T22:11:05.156Z,99.90
2018-07-09T22:14:08.766Z,99.90
2018-07-09T22:17:12.263Z,99.90
2018-07-09T22:20:15.837Z,99.90
2018-07-09T22:23:25.994Z,99.90
2018-07-09T22:26:29.272Z,99.90
2018-07-09T22:32:58.625Z,99.90
2018-07-09T22:36:26.297Z,99.90
2018-07-09T22:39:34.731Z,99.90
2018-07-09T22:45:47.571Z,99.90
2018-07-09T22:48:54.296Z,99.90
2018-07-09T22:52:00.103Z,99.90
2018-07-09T22:56:12.049Z,99.90
2018-07-09T22:59:16.500Z,99.90
2018-07-09T23:02:26.580Z,99.90
2018-07-09T23:05:30.910Z,99.90
2018-07-09T23:08:35.267Z,99.90
2018-07-09T23:13:32.908Z,99.90
2018-07-09T23:16:54.278Z,99.90
2018-07-09T23:20:41.019Z,99.90
2018-07-09T23:23:44.625Z,99.90
2018-07-09T23:26:48.031Z,99.90
2018-07-09T23:29:51.861Z,99.90
2018-07-09T23:32:55.368Z,99.90
2018-07-09T23:35:59.418Z,99.90
2018-07-09T23:39:12.456Z,99.90
2018-07-09T23:42:15.468Z,99.90
2018-07-09T23:45:20.557Z,99.90
2018-07-09T23:48:25.114Z,99.90
2018-07-09T23:51:28.245Z,99.90
2018-07-09T23:54:32.005Z,99.90
